CPX311 Details

Departure: Chicago/Rockford International Airport (KRFD)
Arrival: Lehigh Valley International Airport (KABE)
Route: QUOTE JOT J60 PSB V30 ETX


Current Weather Information
KRFD 250954Z 20005KT 10SM BKN200 21/16 A2986 RMK AO2 SLP107 T02060161
KABE 250951Z 00000KT 10SM CLR 12/08 A3019 RMK AO2 SLP223 T01170083